sensor_id;sensor_type;location;lat;lon;timestamp;pressure;altitude;pressure_sealevel;temperature;humidity
73981;BME280;62348;51.412;5.436;2023-05-22T00:00:28;101344.25;;;16.28;84.90
73981;BME280;62348;51.412;5.436;2023-05-22T00:02:59;101345.06;;;16.24;85.00
73981;BME280;62348;51.412;5.436;2023-05-22T00:05:27;101342.16;;;16.15;85.45
73981;BME280;62348;51.412;5.436;2023-05-22T00:07:53;101341.91;;;16.16;85.53
73981;BME280;62348;51.412;5.436;2023-05-22T00:10:18;101339.47;;;16.10;85.79
73981;BME280;62348;51.412;5.436;2023-05-22T00:12:44;101334.59;;;16.07;85.77
73981;BME280;62348;51.412;5.436;2023-05-22T00:15:10;101333.00;;;16.00;86.54
73981;BME280;62348;51.412;5.436;2023-05-22T00:17:35;101329.75;;;15.98;86.59
73981;BME280;62348;51.412;5.436;2023-05-22T00:20:02;101325.63;;;16.01;86.51
73981;BME280;62348;51.412;5.436;2023-05-22T00:22:35;101338.19;;;16.02;86.22
73981;BME280;62348;51.412;5.436;2023-05-22T00:25:05;101335.56;;;15.92;86.96
73981;BME280;62348;51.412;5.436;2023-05-22T00:27:31;101329.56;;;15.90;86.87
73981;BME280;62348;51.412;5.436;2023-05-22T00:29:57;101337.75;;;15.90;87.05
73981;BME280;62348;51.412;5.436;2023-05-22T00:32:23;101332.56;;;15.88;87.00
73981;BME280;62348;51.412;5.436;2023-05-22T00:34:48;101333.66;;;15.87;87.12
73981;BME280;62348;51.412;5.436;2023-05-22T00:37:14;101326.84;;;15.90;86.93
73981;BME280;62348;51.412;5.436;2023-05-22T00:39:40;101325.75;;;15.86;86.97
73981;BME280;62348;51.412;5.436;2023-05-22T00:42:05;101321.44;;;15.79;87.02
73981;BME280;62348;51.412;5.436;2023-05-22T00:44:30;101318.72;;;15.79;87.16
73981;BME280;62348;51.412;5.436;2023-05-22T00:46:56;101317.63;;;15.80;87.19
73981;BME280;62348;51.412;5.436;2023-05-22T00:49:21;101317.66;;;15.70;87.37
73981;BME280;62348;51.412;5.436;2023-05-22T00:51:47;101315.00;;;15.65;87.58
73981;BME280;62348;51.412;5.436;2023-05-22T00:54:13;101318.78;;;15.69;87.83
73981;BME280;62348;51.412;5.436;2023-05-22T00:56:40;101316.34;;;15.68;87.70
73981;BME280;62348;51.412;5.436;2023-05-22T00:59:06;101319.34;;;15.66;87.68
73981;BME280;62348;51.412;5.436;2023-05-22T01:01:32;101330.25;;;15.66;87.39
73981;BME280;62348;51.412;5.436;2023-05-22T01:04:02;101329.47;;;15.60;87.77
73981;BME280;62348;51.412;5.436;2023-05-22T01:06:29;101330.88;;;15.53;87.97
73981;BME280;62348;51.412;5.436;2023-05-22T01:08:56;101320.78;;;15.53;88.11
73981;BME280;62348;51.412;5.436;2023-05-22T01:11:29;101323.03;;;15.46;88.34
73981;BME280;62348;51.412;5.436;2023-05-22T01:22:29;101312.94;;;15.41;88.25
73981;BME280;62348;51.412;5.436;2023-05-22T01:25:24;101315.44;;;15.38;88.19
73981;BME280;62348;51.412;5.436;2023-05-22T01:30:54;101312.75;;;15.33;88.81
73981;BME280;62348;51.412;5.436;2023-05-22T01:33:25;101311.38;;;15.30;88.93
73981;BME280;62348;51.412;5.436;2023-05-22T01:35:55;101316.31;;;15.23;89.47
73981;BME280;62348;51.412;5.436;2023-05-22T01:38:21;101315.25;;;15.24;89.46
73981;BME280;62348;51.412;5.436;2023-05-22T01:40:47;101315.78;;;15.26;89.32
73981;BME280;62348;51.412;5.436;2023-05-22T01:43:16;101314.44;;;15.23;89.39
73981;BME280;62348;51.412;5.436;2023-05-22T01:45:42;101314.72;;;15.17;89.99
73981;BME280;62348;51.412;5.436;2023-05-22T01:48:07;101312.00;;;15.12;89.93
73981;BME280;62348;51.412;5.436;2023-05-22T01:50:32;101315.31;;;15.09;90.09
73981;BME280;62348;51.412;5.436;2023-05-22T01:53:20;101308.75;;;15.10;89.37
73981;BME280;62348;51.412;5.436;2023-05-22T01:56:00;101311.22;;;15.06;90.05
73981;BME280;62348;51.412;5.436;2023-05-22T01:58:48;101312.53;;;15.14;88.98
73981;BME280;62348;51.412;5.436;2023-05-22T02:01:18;101306.34;;;15.03;90.18
73981;BME280;62348;51.412;5.436;2023-05-22T02:03:45;101310.72;;;14.99;90.14
73981;BME280;62348;51.412;5.436;2023-05-22T02:06:12;101311.00;;;15.02;90.19
73981;BME280;62348;51.412;5.436;2023-05-22T02:08:40;101306.66;;;14.96;90.30
73981;BME280;62348;51.412;5.436;2023-05-22T02:11:07;101305.84;;;14.96;90.21
73981;BME280;62348;51.412;5.436;2023-05-22T02:13:34;101303.66;;;14.93;90.17
73981;BME280;62348;51.412;5.436;2023-05-22T02:16:00;101311.03;;;14.92;90.05
73981;BME280;62348;51.412;5.436;2023-05-22T02:18:27;101311.81;;;14.93;90.23
73981;BME280;62348;51.412;5.436;2023-05-22T02:20:56;101316.75;;;14.91;90.15
73981;BME280;62348;51.412;5.436;2023-05-22T02:23:21;101321.44;;;14.80;90.58
73981;BME280;62348;51.412;5.436;2023-05-22T02:25:47;101315.72;;;14.76;90.64
73981;BME280;62348;51.412;5.436;2023-05-22T02:28:12;101309.69;;;14.79;90.54
73981;BME280;62348;51.412;5.436;2023-05-22T02:30:38;101302.91;;;14.77;90.54
73981;BME280;62348;51.412;5.436;2023-05-22T02:33:03;101290.94;;;14.78;90.46
73981;BME280;62348;51.412;5.436;2023-05-22T02:35:30;101297.75;;;14.75;90.49
73981;BME280;62348;51.412;5.436;2023-05-22T02:37:56;101297.78;;;14.70;90.60
73981;BME280;62348;51.412;5.436;2023-05-22T02:40:21;101298.88;;;14.69;90.72
73981;BME280;62348;51.412;5.436;2023-05-22T02:42:47;101292.34;;;14.65;90.82
73981;BME280;62348;51.412;5.436;2023-05-22T02:45:12;101296.41;;;14.62;90.78
73981;BME280;62348;51.412;5.436;2023-05-22T02:47:38;101295.88;;;14.60;90.91
73981;BME280;62348;51.412;5.436;2023-05-22T02:50:04;101295.88;;;14.66;90.64
73981;BME280;62348;51.412;5.436;2023-05-22T02:52:29;101297.25;;;14.63;90.92
73981;BME280;62348;51.412;5.436;2023-05-22T02:54:55;101295.63;;;14.57;91.08
73981;BME280;62348;51.412;5.436;2023-05-22T02:57:21;101300.22;;;14.56;91.19
73981;BME280;62348;51.412;5.436;2023-05-22T02:59:46;101291.53;;;14.54;91.17
73981;BME280;62348;51.412;5.436;2023-05-22T03:02:12;101296.19;;;14.59;91.19
73981;BME280;62348;51.412;5.436;2023-05-22T03:04:38;101291.78;;;14.53;91.49
73981;BME280;62348;51.412;5.436;2023-05-22T03:07:03;101290.19;;;14.57;91.29
73981;BME280;62348;51.412;5.436;2023-05-22T03:09:31;101297.78;;;14.55;91.21
73981;BME280;62348;51.412;5.436;2023-05-22T03:11:56;101289.91;;;14.58;91.04
73981;BME280;62348;51.412;5.436;2023-05-22T03:14:22;101297.78;;;14.60;91.06
73981;BME280;62348;51.412;5.436;2023-05-22T03:16:47;101277.66;;;14.56;90.89
73981;BME280;62348;51.412;5.436;2023-05-22T03:19:14;101284.47;;;14.53;90.80
73981;BME280;62348;51.412;5.436;2023-05-22T03:21:39;101279.28;;;14.52;91.11
73981;BME280;62348;51.412;5.436;2023-05-22T03:24:05;101283.38;;;14.49;91.23
73981;BME280;62348;51.412;5.436;2023-05-22T03:26:31;101270.28;;;14.51;90.95
73981;BME280;62348;51.412;5.436;2023-05-22T03:28:57;101287.72;;;14.50;91.04
73981;BME280;62348;51.412;5.436;2023-05-22T03:31:28;101282.81;;;14.47;91.04
73981;BME280;62348;51.412;5.436;2023-05-22T03:33:55;101277.41;;;14.42;91.10
73981;BME280;62348;51.412;5.436;2023-05-22T03:36:21;101281.50;;;14.39;91.39
73981;BME280;62348;51.412;5.436;2023-05-22T03:38:47;101273.06;;;14.36;91.43
73981;BME280;62348;51.412;5.436;2023-05-22T03:41:12;101274.16;;;14.30;91.64
73981;BME280;62348;51.412;5.436;2023-05-22T03:43:38;101271.44;;;14.35;91.66
73981;BME280;62348;51.412;5.436;2023-05-22T03:46:03;101272.78;;;14.37;91.55
73981;BME280;62348;51.412;5.436;2023-05-22T03:48:29;101273.63;;;14.33;91.79
73981;BME280;62348;51.412;5.436;2023-05-22T03:50:55;101269.84;;;14.29;91.59
73981;BME280;62348;51.412;5.436;2023-05-22T03:53:20;101270.09;;;14.27;91.49
73981;BME280;62348;51.412;5.436;2023-05-22T03:55:46;101273.63;;;14.28;91.60
73981;BME280;62348;51.412;5.436;2023-05-22T03:58:11;101278.25;;;14.22;91.79
73981;BME280;62348;51.412;5.436;2023-05-22T04:00:37;101280.19;;;14.16;91.75
73981;BME280;62348;51.412;5.436;2023-05-22T04:03:03;101264.13;;;14.20;91.65
73981;BME280;62348;51.412;5.436;2023-05-22T04:05:28;101273.13;;;14.15;91.96
73981;BME280;62348;51.412;5.436;2023-05-22T04:07:54;101282.91;;;14.16;91.70
73981;BME280;62348;51.412;5.436;2023-05-22T04:10:20;101279.63;;;14.14;91.64
73981;BME280;62348;51.412;5.436;2023-05-22T04:12:47;101290.50;;;14.14;92.57
73981;BME280;62348;51.412;5.436;2023-05-22T04:15:13;101288.59;;;14.15;92.37
73981;BME280;62348;51.412;5.436;2023-05-22T04:17:39;101287.78;;;14.14;92.14
73981;BME280;62348;51.412;5.436;2023-05-22T04:20:06;101289.97;;;14.12;92.04
73981;BME280;62348;51.412;5.436;2023-05-22T04:22:31;101295.16;;;14.14;92.40
73981;BME280;62348;51.412;5.436;2023-05-22T04:24:57;101285.34;;;14.13;92.80
73981;BME280;62348;51.412;5.436;2023-05-22T04:27:22;101292.69;;;14.12;92.79
73981;BME280;62348;51.412;5.436;2023-05-22T04:29:49;101295.13;;;14.19;92.43
73981;BME280;62348;51.412;5.436;2023-05-22T04:32:15;101293.50;;;14.18;92.61
73981;BME280;62348;51.412;5.436;2023-05-22T04:34:47;101295.38;;;14.22;92.39
73981;BME280;62348;51.412;5.436;2023-05-22T04:37:13;101294.84;;;14.20;91.90
73981;BME280;62348;51.412;5.436;2023-05-22T04:39:43;101299.75;;;14.13;92.51
73981;BME280;62348;51.412;5.436;2023-05-22T04:42:10;101296.50;;;14.16;92.47
73981;BME280;62348;51.412;5.436;2023-05-22T04:44:36;101295.97;;;14.19;92.33
73981;BME280;62348;51.412;5.436;2023-05-22T04:47:02;101298.94;;;14.23;92.55
73981;BME280;62348;51.412;5.436;2023-05-22T04:49:28;101304.66;;;14.21;92.64
73981;BME280;62348;51.412;5.436;2023-05-22T04:51:54;101308.44;;;14.20;92.69
73981;BME280;62348;51.412;5.436;2023-05-22T04:54:22;101308.44;;;14.25;92.26
73981;BME280;62348;51.412;5.436;2023-05-22T04:56:47;101317.16;;;14.28;92.03
73981;BME280;62348;51.412;5.436;2023-05-22T04:59:13;101317.97;;;14.28;92.17
73981;BME280;62348;51.412;5.436;2023-05-22T05:01:40;101318.25;;;14.27;91.74
73981;BME280;62348;51.412;5.436;2023-05-22T05:04:09;101311.97;;;14.26;92.06
73981;BME280;62348;51.412;5.436;2023-05-22T05:06:35;101327.22;;;14.27;92.22
73981;BME280;62348;51.412;5.436;2023-05-22T05:09:02;101320.41;;;14.24;92.08
73981;BME280;62348;51.412;5.436;2023-05-22T05:11:28;101328.59;;;14.19;92.31
73981;BME280;62348;51.412;5.436;2023-05-22T05:13:54;101329.66;;;14.23;92.02
73981;BME280;62348;51.412;5.436;2023-05-22T05:16:19;101329.13;;;14.21;92.23
73981;BME280;62348;51.412;5.436;2023-05-22T05:18:45;101328.59;;;14.19;92.20
73981;BME280;62348;51.412;5.436;2023-05-22T05:21:10;101337.28;;;14.21;92.09
73981;BME280;62348;51.412;5.436;2023-05-22T05:23:35;101328.03;;;14.22;92.08
73981;BME280;62348;51.412;5.436;2023-05-22T05:26:01;101331.03;;;14.26;91.44
73981;BME280;62348;51.412;5.436;2023-05-22T05:28:26;101342.72;;;14.21;92.38
73981;BME280;62348;51.412;5.436;2023-05-22T05:30:51;101342.72;;;14.27;92.16
73981;BME280;62348;51.412;5.436;2023-05-22T05:33:17;101337.84;;;14.29;92.34
73981;BME280;62348;51.412;5.436;2023-05-22T05:35:43;101336.72;;;14.35;91.81
73981;BME280;62348;51.412;5.436;2023-05-22T05:38:09;101334.00;;;14.35;91.95
73981;BME280;62348;51.412;5.436;2023-05-22T05:40:34;101329.38;;;14.35;91.35
73981;BME280;62348;51.412;5.436;2023-05-22T05:43:00;101335.34;;;14.37;91.27
73981;BME280;62348;51.412;5.436;2023-05-22T05:45:25;101339.72;;;14.38;91.50
73981;BME280;62348;51.412;5.436;2023-05-22T05:47:51;101335.91;;;14.44;91.16
73981;BME280;62348;51.412;5.436;2023-05-22T05:50:17;101338.09;;;14.48;91.40
73981;BME280;62348;51.412;5.436;2023-05-22T05:52:42;101338.31;;;14.51;91.41
73981;BME280;62348;51.412;5.436;2023-05-22T05:55:08;101346.78;;;14.50;90.79
73981;BME280;62348;51.412;5.436;2023-05-22T05:57:34;101335.06;;;14.49;91.03
73981;BME280;62348;51.412;5.436;2023-05-22T06:00:00;101339.16;;;14.52;90.83
73981;BME280;62348;51.412;5.436;2023-05-22T06:02:25;101338.31;;;14.51;91.00
73981;BME280;62348;51.412;5.436;2023-05-22T06:04:50;101336.44;;;14.57;90.87
73981;BME280;62348;51.412;5.436;2023-05-22T06:07:18;101344.31;;;14.58;90.69
73981;BME280;62348;51.412;5.436;2023-05-22T06:09:43;101338.63;;;14.60;91.05
73981;BME280;62348;51.412;5.436;2023-05-22T06:12:08;101348.13;;;14.62;90.89
73981;BME280;62348;51.412;5.436;2023-05-22T06:14:38;101348.97;;;14.63;90.96
73981;BME280;62348;51.412;5.436;2023-05-22T06:17:05;101350.84;;;14.62;91.08
73981;BME280;62348;51.412;5.436;2023-05-22T06:19:30;101351.38;;;14.70;91.35
73981;BME280;62348;51.412;5.436;2023-05-22T06:21:55;101354.09;;;14.70;91.40
73981;BME280;62348;51.412;5.436;2023-05-22T06:24:21;101362.00;;;14.76;91.00
73981;BME280;62348;51.412;5.436;2023-05-22T06:26:47;101360.06;;;14.77;91.09
73981;BME280;62348;51.412;5.436;2023-05-22T06:29:12;101354.91;;;14.75;91.27
73981;BME280;62348;51.412;5.436;2023-05-22T06:31:37;101360.63;;;14.74;91.48
73981;BME280;62348;51.412;5.436;2023-05-22T06:34:04;101357.63;;;14.75;91.62
73981;BME280;62348;51.412;5.436;2023-05-22T06:36:29;101353.81;;;14.76;91.71
73981;BME280;62348;51.412;5.436;2023-05-22T06:38:54;101358.69;;;14.79;91.84
73981;BME280;62348;51.412;5.436;2023-05-22T06:41:20;101359.53;;;14.80;91.88
73981;BME280;62348;51.412;5.436;2023-05-22T06:43:46;101364.69;;;14.81;92.00
73981;BME280;62348;51.412;5.436;2023-05-22T06:46:11;101369.03;;;14.88;91.68
73981;BME280;62348;51.412;5.436;2023-05-22T06:48:37;101359.50;;;14.90;91.34
73981;BME280;62348;51.412;5.436;2023-05-22T06:51:02;101366.84;;;14.90;91.64
73981;BME280;62348;51.412;5.436;2023-05-22T06:53:28;101369.00;;;14.93;91.99
73981;BME280;62348;51.412;5.436;2023-05-22T06:55:54;101371.19;;;14.96;91.45
73981;BME280;62348;51.412;5.436;2023-05-22T06:58:20;101380.44;;;15.00;91.22
73981;BME280;62348;51.412;5.436;2023-05-22T07:00:45;101381.78;;;15.02;91.67
73981;BME280;62348;51.412;5.436;2023-05-22T07:03:11;101385.59;;;15.07;91.51
73981;BME280;62348;51.412;5.436;2023-05-22T07:05:36;101387.47;;;15.06;91.34
73981;BME280;62348;51.412;5.436;2023-05-22T07:08:02;101395.91;;;15.10;91.32
73981;BME280;62348;51.412;5.436;2023-05-22T07:10:27;101397.03;;;15.09;91.24
73981;BME280;62348;51.412;5.436;2023-05-22T07:12:53;101399.69;;;15.14;90.93
73981;BME280;62348;51.412;5.436;2023-05-22T07:15:18;101406.78;;;15.15;91.15
73981;BME280;62348;51.412;5.436;2023-05-22T07:17:44;101404.59;;;15.17;90.84
73981;BME280;62348;51.412;5.436;2023-05-22T07:20:10;101412.78;;;15.17;90.72
73981;BME280;62348;51.412;5.436;2023-05-22T07:22:37;101413.88;;;15.16;90.60
73981;BME280;62348;51.412;5.436;2023-05-22T07:25:02;101419.03;;;15.17;90.49
73981;BME280;62348;51.412;5.436;2023-05-22T07:27:28;101419.88;;;15.18;90.76
73981;BME280;62348;51.412;5.436;2023-05-22T07:29:54;101411.44;;;15.14;91.08
73981;BME280;62348;51.412;5.436;2023-05-22T07:32:19;101412.78;;;15.17;91.11
73981;BME280;62348;51.412;5.436;2023-05-22T07:34:45;101405.72;;;15.16;90.96
73981;BME280;62348;51.412;5.436;2023-05-22T07:37:11;101413.31;;;15.14;91.37
73981;BME280;62348;51.412;5.436;2023-05-22T07:39:37;101407.31;;;15.22;91.29
73981;BME280;62348;51.412;5.436;2023-05-22T07:42:03;101417.69;;;15.20;91.54
73981;BME280;62348;51.412;5.436;2023-05-22T07:44:29;101420.09;;;15.27;91.57
73981;BME280;62348;51.412;5.436;2023-05-22T07:46:55;101415.19;;;15.29;90.76
73981;BME280;62348;51.412;5.436;2023-05-22T07:49:20;101422.00;;;15.31;91.00
73981;BME280;62348;51.412;5.436;2023-05-22T07:51:46;101425.00;;;15.25;90.85
73981;BME280;62348;51.412;5.436;2023-05-22T07:54:11;101418.44;;;15.31;91.20
73981;BME280;62348;51.412;5.436;2023-05-22T07:56:40;101425.00;;;15.30;91.26
73981;BME280;62348;51.412;5.436;2023-05-22T07:59:06;101425.81;;;15.30;91.18
73981;BME280;62348;51.412;5.436;2023-05-22T08:01:31;101417.34;;;15.37;91.36
73981;BME280;62348;51.412;5.436;2023-05-22T08:03:57;101416.75;;;15.45;90.99
73981;BME280;62348;51.412;5.436;2023-05-22T08:06:22;101422.47;;;15.49;91.07
73981;BME280;62348;51.412;5.436;2023-05-22T08:08:49;101420.28;;;15.51;91.29
73981;BME280;62348;51.412;5.436;2023-05-22T08:11:17;101417.81;;;15.54;91.18
73981;BME280;62348;51.412;5.436;2023-05-22T08:13:42;101415.63;;;15.51;91.39
73981;BME280;62348;51.412;5.436;2023-05-22T08:16:08;101421.84;;;15.62;91.39
73981;BME280;62348;51.412;5.436;2023-05-22T08:18:34;101421.31;;;15.65;91.22
73981;BME280;62348;51.412;5.436;2023-05-22T08:20:59;101418.53;;;15.70;90.89
73981;BME280;62348;51.412;5.436;2023-05-22T08:23:25;101411.16;;;15.76;90.47
73981;BME280;62348;51.412;5.436;2023-05-22T08:25:50;101415.53;;;15.77;90.52
73981;BME280;62348;51.412;5.436;2023-05-22T08:28:16;101413.59;;;15.83;90.65
73981;BME280;62348;51.412;5.436;2023-05-22T08:30:41;101416.03;;;15.84;90.33
73981;BME280;62348;51.412;5.436;2023-05-22T08:33:07;101418.44;;;15.91;90.14
73981;BME280;62348;51.412;5.436;2023-05-22T08:35:32;101411.31;;;15.95;90.28
73981;BME280;62348;51.412;5.436;2023-05-22T08:37:57;101418.66;;;15.99;90.46
73981;BME280;62348;51.412;5.436;2023-05-22T08:40:31;101422.47;;;16.04;90.00
73981;BME280;62348;51.412;5.436;2023-05-22T08:42:58;101415.06;;;16.04;90.12
73981;BME280;62348;51.412;5.436;2023-05-22T08:45:24;101413.66;;;16.12;90.02
73981;BME280;62348;51.412;5.436;2023-05-22T08:47:51;101417.44;;;16.16;89.99
73981;BME280;62348;51.412;5.436;2023-05-22T08:50:19;101413.88;;;16.20;89.75
73981;BME280;62348;51.412;5.436;2023-05-22T08:52:49;101424.72;;;16.26;89.72
73981;BME280;62348;51.412;5.436;2023-05-22T08:55:15;101421.69;;;16.32;89.58
73981;BME280;62348;51.412;5.436;2023-05-22T08:57:46;101422.22;;;16.34;89.00
73981;BME280;62348;51.412;5.436;2023-05-22T09:00:14;101419.22;;;16.36;88.45
73981;BME280;62348;51.412;5.436;2023-05-22T09:02:40;101424.09;;;16.39;88.03
73981;BME280;62348;51.412;5.436;2023-05-22T09:05:06;101424.38;;;16.37;88.51
73981;BME280;62348;51.412;5.436;2023-05-22T09:07:33;101425.16;;;16.43;88.68
73981;BME280;62348;51.412;5.436;2023-05-22T09:09:58;101420.75;;;16.47;89.03
73981;BME280;62348;51.412;5.436;2023-05-22T09:12:25;101418.50;;;16.54;88.96
73981;BME280;62348;51.412;5.436;2023-05-22T09:14:53;101424.50;;;16.56;88.39
73981;BME280;62348;51.412;5.436;2023-05-22T09:17:20;101416.53;;;16.60;88.51
73981;BME280;62348;51.412;5.436;2023-05-22T09:19:46;101420.31;;;16.64;87.95
73981;BME280;62348;51.412;5.436;2023-05-22T09:22:12;101411.78;;;16.71;88.20
73981;BME280;62348;51.412;5.436;2023-05-22T09:24:39;101411.47;;;16.77;87.84
73981;BME280;62348;51.412;5.436;2023-05-22T09:27:06;101398.84;;;16.82;87.49
73981;BME280;62348;51.412;5.436;2023-05-22T09:29:46;101411.38;;;16.88;87.88
73981;BME280;62348;51.412;5.436;2023-05-22T09:32:13;101408.34;;;16.89;86.86
73981;BME280;62348;51.412;5.436;2023-05-22T09:34:39;101408.31;;;16.94;86.72
73981;BME280;62348;51.412;5.436;2023-05-22T09:37:04;101406.25;;;17.05;86.52
73981;BME280;62348;51.412;5.436;2023-05-22T09:39:44;101419.53;;;17.17;86.23
73981;BME280;62348;51.412;5.436;2023-05-22T09:42:10;101406.69;;;17.17;85.67
73981;BME280;62348;51.412;5.436;2023-05-22T09:44:38;101408.84;;;17.21;85.52
73981;BME280;62348;51.412;5.436;2023-05-22T09:47:07;101411.78;;;17.24;85.85
73981;BME280;62348;51.412;5.436;2023-05-22T09:49:35;101405.59;;;17.37;86.23
73981;BME280;62348;51.412;5.436;2023-05-22T09:52:03;101409.59;;;17.45;85.59
73981;BME280;62348;51.412;5.436;2023-05-22T09:54:32;101401.72;;;17.63;85.11
73981;BME280;62348;51.412;5.436;2023-05-22T09:56:58;101402.69;;;17.72;84.65
73981;BME280;62348;51.412;5.436;2023-05-22T09:59:26;101405.56;;;17.81;83.77
73981;BME280;62348;51.412;5.436;2023-05-22T10:01:54;101398.63;;;17.88;83.37
73981;BME280;62348;51.412;5.436;2023-05-22T10:04:21;101404.63;;;17.90;83.85
73981;BME280;62348;51.412;5.436;2023-05-22T10:06:50;101401.53;;;17.97;84.06
73981;BME280;62348;51.412;5.436;2023-05-22T10:09:18;101404.25;;;17.97;83.56
73981;BME280;62348;51.412;5.436;2023-05-22T10:11:46;101407.22;;;18.01;82.78
73981;BME280;62348;51.412;5.436;2023-05-22T10:14:13;101402.16;;;18.08;82.44
73981;BME280;62348;51.412;5.436;2023-05-22T10:16:40;101403.22;;;18.12;82.82
73981;BME280;62348;51.412;5.436;2023-05-22T10:19:06;101407.09;;;18.25;83.12
73981;BME280;62348;51.412;5.436;2023-05-22T10:21:34;101409.06;;;18.38;82.57
73981;BME280;62348;51.412;5.436;2023-05-22T10:24:00;101406.03;;;18.40;80.77
73981;BME280;62348;51.412;5.436;2023-05-22T10:26:27;101402.91;;;18.46;80.93
73981;BME280;62348;51.412;5.436;2023-05-22T10:29:08;101405.59;;;18.65;81.93
73981;BME280;62348;51.412;5.436;2023-05-22T10:32:05;101392.88;;;18.88;81.35
73981;BME280;62348;51.412;5.436;2023-05-22T10:34:39;101398.75;;;18.96;81.20
73981;BME280;62348;51.412;5.436;2023-05-22T10:40:26;101395.19;;;19.23;80.58
73981;BME280;62348;51.412;5.436;2023-05-22T10:42:58;101394.78;;;19.29;78.95
73981;BME280;62348;51.412;5.436;2023-05-22T10:45:25;101387.25;;;19.49;77.83
73981;BME280;62348;51.412;5.436;2023-05-22T10:48:02;101386.41;;;19.62;78.17
73981;BME280;62348;51.412;5.436;2023-05-22T10:50:28;101384.63;;;19.80;78.11
73981;BME280;62348;51.412;5.436;2023-05-22T10:53:25;101379.22;;;19.89;79.14
73981;BME280;62348;51.412;5.436;2023-05-22T10:55:52;101376.66;;;19.93;76.36
73981;BME280;62348;51.412;5.436;2023-05-22T10:58:28;101379.03;;;20.08;77.02
73981;BME280;62348;51.412;5.436;2023-05-22T11:01:10;101376.22;;;19.99;77.18
73981;BME280;62348;51.412;5.436;2023-05-22T11:06:48;101372.06;;;20.24;76.99
73981;BME280;62348;51.412;5.436;2023-05-22T11:09:43;101381.06;;;20.47;76.74
73981;BME280;62348;51.412;5.436;2023-05-22T11:12:27;101372.53;;;20.58;76.61
73981;BME280;62348;51.412;5.436;2023-05-22T11:14:55;101363.91;;;20.73;74.82
73981;BME280;62348;51.412;5.436;2023-05-22T11:17:25;101372.41;;;20.94;77.05
73981;BME280;62348;51.412;5.436;2023-05-22T11:22:37;101369.91;;;21.41;75.53
73981;BME280;62348;51.412;5.436;2023-05-22T11:25:18;101363.81;;;21.62;74.07
73981;BME280;62348;51.412;5.436;2023-05-22T11:27:45;101366.44;;;21.67;72.70
73981;BME280;62348;51.412;5.436;2023-05-22T11:30:12;101359.47;;;21.70;71.93
73981;BME280;62348;51.412;5.436;2023-05-22T11:32:39;101361.41;;;21.69;70.38
73981;BME280;62348;51.412;5.436;2023-05-22T11:35:05;101358.00;;;21.63;71.00
73981;BME280;62348;51.412;5.436;2023-05-22T11:37:36;101371.75;;;21.55;71.29
73981;BME280;62348;51.412;5.436;2023-05-22T11:40:03;101370.41;;;21.43;70.23
73981;BME280;62348;51.412;5.436;2023-05-22T11:42:29;101360.88;;;21.41;69.94
73981;BME280;62348;51.412;5.436;2023-05-22T11:44:55;101360.38;;;21.39;69.77
73981;BME280;62348;51.412;5.436;2023-05-22T11:47:21;101353.47;;;21.50;74.06
73981;BME280;62348;51.412;5.436;2023-05-22T11:49:46;101356.69;;;21.52;71.09
73981;BME280;62348;51.412;5.436;2023-05-22T11:52:12;101357.03;;;21.59;71.35
73981;BME280;62348;51.412;5.436;2023-05-22T11:54:40;101352.00;;;21.70;70.27
73981;BME280;62348;51.412;5.436;2023-05-22T11:57:09;101347.94;;;21.85;70.24
73981;BME280;62348;51.412;5.436;2023-05-22T11:59:34;101348.28;;;22.01;70.24
73981;BME280;62348;51.412;5.436;2023-05-22T12:02:00;101346.81;;;21.95;69.41
73981;BME280;62348;51.412;5.436;2023-05-22T12:04:25;101350.53;;;21.90;69.53
73981;BME280;62348;51.412;5.436;2023-05-22T12:06:52;101340.53;;;21.86;69.06
73981;BME280;62348;51.412;5.436;2023-05-22T12:09:18;101346.66;;;21.82;68.71
73981;BME280;62348;51.412;5.436;2023-05-22T12:11:45;101344.38;;;21.76;69.12
73981;BME280;62348;51.412;5.436;2023-05-22T12:14:11;101347.31;;;21.79;68.83
73981;BME280;62348;51.412;5.436;2023-05-22T12:16:37;101342.28;;;21.81;70.15
73981;BME280;62348;51.412;5.436;2023-05-22T12:19:06;101333.88;;;21.87;69.39
73981;BME280;62348;51.412;5.436;2023-05-22T12:21:32;101337.78;;;21.86;68.51
73981;BME280;62348;51.412;5.436;2023-05-22T12:23:57;101338.06;;;21.93;70.23
73981;BME280;62348;51.412;5.436;2023-05-22T12:26:22;101329.81;;;21.93;69.61
73981;BME280;62348;51.412;5.436;2023-05-22T12:28:54;101337.75;;;21.94;68.94
73981;BME280;62348;51.412;5.436;2023-05-22T12:31:21;101343.25;;;21.94;69.43
73981;BME280;62348;51.412;5.436;2023-05-22T12:33:47;101338.06;;;22.10;69.95
73981;BME280;62348;51.412;5.436;2023-05-22T12:36:13;101341.28;;;22.03;68.23
73981;BME280;62348;51.412;5.436;2023-05-22T12:38:39;101340.34;;;21.99;68.59
73981;BME280;62348;51.412;5.436;2023-05-22T12:41:05;101337.09;;;21.97;69.04
73981;BME280;62348;51.412;5.436;2023-05-22T12:43:30;101345.38;;;21.97;69.41
73981;BME280;62348;51.412;5.436;2023-05-22T12:45:56;101335.31;;;22.01;68.67
73981;BME280;62348;51.412;5.436;2023-05-22T12:48:21;101340.47;;;22.12;69.69
73981;BME280;62348;51.412;5.436;2023-05-22T12:50:47;101335.44;;;22.22;68.15
73981;BME280;62348;51.412;5.436;2023-05-22T12:53:12;101339.78;;;22.32;68.21
73981;BME280;62348;51.412;5.436;2023-05-22T12:55:38;101333.31;;;22.37;68.20
73981;BME280;62348;51.412;5.436;2023-05-22T12:58:04;101330.56;;;22.37;69.02
73981;BME280;62348;51.412;5.436;2023-05-22T13:00:30;101339.63;;;22.37;68.41
73981;BME280;62348;51.412;5.436;2023-05-22T13:02:55;101334.44;;;22.36;67.11
73981;BME280;62348;51.412;5.436;2023-05-22T13:05:21;101322.44;;;22.40;68.92
73981;BME280;62348;51.412;5.436;2023-05-22T13:07:46;101323.34;;;22.53;68.14
73981;BME280;62348;51.412;5.436;2023-05-22T13:10:12;101331.16;;;22.51;66.80